Delta Virtual Airport Information Service

Anchorage Ted Stevens International Airport

ICAO: PANC Country: United States
Latitude: 61.1744 Longitude: -149.996
Latest Arrival : UPS63 (1B) (VHHH-PANC) Latest Departure : ASA100 (1) (PANC-KSEA)


WX CaptureLIVE
Data provided by noaa.gov | Fetched at 22:31:25

METAR : PANC 250253Z 24011KT 10SM -RA FEW015 BKN055 BKN070 09/06 A2968

TAF : PANC 250310Z 2503/2606 22011KT P6SM -SHRA SCT025 OVC050 FM251200 16007KT P6SM SCT030 BKN060


Runway Data for PANC
Data provided by openaviationdata.com

Runway ID Mag Var Hdg Length Elevation Surface ILS Freq ILS Id ILS Slope
07L 23 66° 10587 ft 152 ft Asphalt 109.9 ITGN 3
07R 23 66° 10886 ft 152 ft Asphalt 111.3 IANC 3
15 23 141° 11591 ft 152 ft Asphalt 111.75 IBSC 3
25L 23 246° 10886 ft 152 ft Asphalt -- -- --
25R 23 246° 10587 ft 152 ft Asphalt -- -- --
33 23 321° 11591 ft 152 ft Asphalt -- -- --

Anchorage Ted Stevens International Airport, United States
Use only for reference purposes



Not for navigational purposes.